sensor_id;sensor_type;location;lat;lon;timestamp;temperature;humidity
13982;DHT22;7065;50.880;5.502;2023-07-09T00:02:01;21.10;99.90
13982;DHT22;7065;50.880;5.502;2023-07-09T00:04:28;21.10;99.90
13982;DHT22;7065;50.880;5.502;2023-07-09T00:06:55;21.00;99.90
13982;DHT22;7065;50.880;5.502;2023-07-09T00:09:22;21.00;99.90
13982;DHT22;7065;50.880;5.502;2023-07-09T00:11:49;20.90;99.90
13982;DHT22;7065;50.880;5.502;2023-07-09T00:14:16;20.90;99.90
13982;DHT22;7065;50.880;5.502;2023-07-09T00:16:44;20.80;99.90
13982;DHT22;7065;50.880;5.502;2023-07-09T00:19:12;20.70;99.90
13982;DHT22;7065;50.880;5.502;2023-07-09T00:21:39;20.70;99.90
13982;DHT22;7065;50.880;5.502;2023-07-09T00:24:07;20.70;99.90
13982;DHT22;7065;50.880;5.502;2023-07-09T00:26:33;20.70;99.90
13982;DHT22;7065;50.880;5.502;2023-07-09T00:28:59;20.70;99.90
13982;DHT22;7065;50.880;5.502;2023-07-09T00:31:26;20.80;99.90
13982;DHT22;7065;50.880;5.502;2023-07-09T00:33:52;20.80;99.90
13982;DHT22;7065;50.880;5.502;2023-07-09T00:36:29;20.90;99.90
13982;DHT22;7065;50.880;5.502;2023-07-09T00:38:57;20.90;99.90
13982;DHT22;7065;50.880;5.502;2023-07-09T00:41:25;20.90;99.90
13982;DHT22;7065;50.880;5.502;2023-07-09T00:43:52;20.90;99.90
13982;DHT22;7065;50.880;5.502;2023-07-09T00:48:51;21.00;99.90
13982;DHT22;7065;50.880;5.502;2023-07-09T00:51:20;21.00;99.90
13982;DHT22;7065;50.880;5.502;2023-07-09T00:53:49;21.00;99.90
13982;DHT22;7065;50.880;5.502;2023-07-09T00:56:37;21.00;99.90
13982;DHT22;7065;50.880;5.502;2023-07-09T00:59:08;21.10;99.90
13982;DHT22;7065;50.880;5.502;2023-07-09T01:01:37;21.10;99.90
13982;DHT22;7065;50.880;5.502;2023-07-09T01:04:07;21.00;99.90
13982;DHT22;7065;50.880;5.502;2023-07-09T01:06:47;21.00;99.90
13982;DHT22;7065;50.880;5.502;2023-07-09T01:09:15;21.00;99.90
13982;DHT22;7065;50.880;5.502;2023-07-09T01:11:41;21.00;99.90
13982;DHT22;7065;50.880;5.502;2023-07-09T01:14:09;21.00;99.90
13982;DHT22;7065;50.880;5.502;2023-07-09T01:16:47;21.00;99.90
13982;DHT22;7065;50.880;5.502;2023-07-09T01:19:13;21.00;99.90
13982;DHT22;7065;50.880;5.502;2023-07-09T01:21:42;21.00;99.90
13982;DHT22;7065;50.880;5.502;2023-07-09T01:24:13;21.00;99.90
13982;DHT22;7065;50.880;5.502;2023-07-09T01:26:45;21.00;99.90
13982;DHT22;7065;50.880;5.502;2023-07-09T01:29:12;21.00;99.90
13982;DHT22;7065;50.880;5.502;2023-07-09T01:31:37;21.00;99.90
13982;DHT22;7065;50.880;5.502;2023-07-09T01:34:03;21.00;99.90
13982;DHT22;7065;50.880;5.502;2023-07-09T01:36:29;20.90;99.90
13982;DHT22;7065;50.880;5.502;2023-07-09T01:38:56;20.90;99.90
13982;DHT22;7065;50.880;5.502;2023-07-09T01:41:22;20.90;99.90
13982;DHT22;7065;50.880;5.502;2023-07-09T01:43:47;20.90;99.90
13982;DHT22;7065;50.880;5.502;2023-07-09T01:46:13;20.80;99.90
13982;DHT22;7065;50.880;5.502;2023-07-09T01:48:40;20.80;99.90
13982;DHT22;7065;50.880;5.502;2023-07-09T01:51:12;20.80;99.90
13982;DHT22;7065;50.880;5.502;2023-07-09T01:53:40;20.80;99.90
13982;DHT22;7065;50.880;5.502;2023-07-09T01:56:06;20.70;99.90
13982;DHT22;7065;50.880;5.502;2023-07-09T01:58:36;20.70;99.90
13982;DHT22;7065;50.880;5.502;2023-07-09T02:01:02;20.70;99.90
13982;DHT22;7065;50.880;5.502;2023-07-09T02:03:28;20.70;99.90
13982;DHT22;7065;50.880;5.502;2023-07-09T02:05:54;20.70;99.90
13982;DHT22;7065;50.880;5.502;2023-07-09T02:08:20;20.70;99.90
13982;DHT22;7065;50.880;5.502;2023-07-09T02:10:49;20.70;99.90
13982;DHT22;7065;50.880;5.502;2023-07-09T02:13:14;20.60;99.90
13982;DHT22;7065;50.880;5.502;2023-07-09T02:15:42;20.60;99.90
13982;DHT22;7065;50.880;5.502;2023-07-09T02:18:10;20.50;99.90
13982;DHT22;7065;50.880;5.502;2023-07-09T02:20:36;20.50;99.90
13982;DHT22;7065;50.880;5.502;2023-07-09T02:23:02;20.40;99.90
13982;DHT22;7065;50.880;5.502;2023-07-09T02:25:28;20.30;99.90
13982;DHT22;7065;50.880;5.502;2023-07-09T02:27:53;20.30;99.90
13982;DHT22;7065;50.880;5.502;2023-07-09T02:30:19;20.20;99.90
13982;DHT22;7065;50.880;5.502;2023-07-09T02:32:45;20.20;99.90
13982;DHT22;7065;50.880;5.502;2023-07-09T02:35:11;20.10;99.90
13982;DHT22;7065;50.880;5.502;2023-07-09T02:37:37;20.10;99.90
13982;DHT22;7065;50.880;5.502;2023-07-09T02:40:03;20.00;99.90
13982;DHT22;7065;50.880;5.502;2023-07-09T02:42:29;20.00;99.90
13982;DHT22;7065;50.880;5.502;2023-07-09T02:44:55;19.90;99.90
13982;DHT22;7065;50.880;5.502;2023-07-09T02:47:21;19.90;99.90
13982;DHT22;7065;50.880;5.502;2023-07-09T02:49:48;19.80;99.90
13982;DHT22;7065;50.880;5.502;2023-07-09T02:52:14;19.80;99.90
13982;DHT22;7065;50.880;5.502;2023-07-09T02:54:39;19.70;99.90
13982;DHT22;7065;50.880;5.502;2023-07-09T02:57:06;19.70;99.90
13982;DHT22;7065;50.880;5.502;2023-07-09T02:59:31;19.70;99.90
13982;DHT22;7065;50.880;5.502;2023-07-09T03:01:59;19.70;99.90
13982;DHT22;7065;50.880;5.502;2023-07-09T03:04:25;19.70;99.90
13982;DHT22;7065;50.880;5.502;2023-07-09T03:06:51;19.60;99.90
13982;DHT22;7065;50.880;5.502;2023-07-09T03:09:18;19.60;99.90
13982;DHT22;7065;50.880;5.502;2023-07-09T03:11:43;19.50;99.90
13982;DHT22;7065;50.880;5.502;2023-07-09T03:14:09;19.50;99.90
13982;DHT22;7065;50.880;5.502;2023-07-09T03:16:35;19.40;99.90
13982;DHT22;7065;50.880;5.502;2023-07-09T03:19:01;19.40;99.90
13982;DHT22;7065;50.880;5.502;2023-07-09T03:21:28;19.40;99.90
13982;DHT22;7065;50.880;5.502;2023-07-09T03:23:55;19.30;99.90
13982;DHT22;7065;50.880;5.502;2023-07-09T03:26:21;19.30;99.90
13982;DHT22;7065;50.880;5.502;2023-07-09T03:28:47;19.30;99.90
13982;DHT22;7065;50.880;5.502;2023-07-09T03:31:13;19.40;99.90
13982;DHT22;7065;50.880;5.502;2023-07-09T03:33:38;19.40;99.90
13982;DHT22;7065;50.880;5.502;2023-07-09T03:36:05;19.40;99.90
13982;DHT22;7065;50.880;5.502;2023-07-09T03:38:31;19.40;99.90
13982;DHT22;7065;50.880;5.502;2023-07-09T03:40:57;19.40;99.90
13982;DHT22;7065;50.880;5.502;2023-07-09T03:43:23;19.40;99.90
13982;DHT22;7065;50.880;5.502;2023-07-09T03:45:49;19.40;99.90
13982;DHT22;7065;50.880;5.502;2023-07-09T03:48:16;19.40;99.90
13982;DHT22;7065;50.880;5.502;2023-07-09T03:50:44;19.30;99.90
13982;DHT22;7065;50.880;5.502;2023-07-09T03:53:10;19.30;99.90
13982;DHT22;7065;50.880;5.502;2023-07-09T03:55:37;19.30;99.90
13982;DHT22;7065;50.880;5.502;2023-07-09T03:58:03;19.30;99.90
13982;DHT22;7065;50.880;5.502;2023-07-09T04:00:29;19.30;99.90
13982;DHT22;7065;50.880;5.502;2023-07-09T04:02:55;19.30;99.90
13982;DHT22;7065;50.880;5.502;2023-07-09T04:05:24;19.30;99.90
13982;DHT22;7065;50.880;5.502;2023-07-09T04:07:51;19.30;99.90
13982;DHT22;7065;50.880;5.502;2023-07-09T04:10:17;19.30;99.90
13982;DHT22;7065;50.880;5.502;2023-07-09T04:12:42;19.30;99.90
13982;DHT22;7065;50.880;5.502;2023-07-09T04:15:09;19.30;99.90
13982;DHT22;7065;50.880;5.502;2023-07-09T04:17:35;19.30;99.90
13982;DHT22;7065;50.880;5.502;2023-07-09T04:20:02;19.30;99.90
13982;DHT22;7065;50.880;5.502;2023-07-09T04:22:31;19.40;99.90
13982;DHT22;7065;50.880;5.502;2023-07-09T04:24:57;19.40;99.90
13982;DHT22;7065;50.880;5.502;2023-07-09T04:27:23;19.40;99.90
13982;DHT22;7065;50.880;5.502;2023-07-09T04:29:54;19.40;99.90
13982;DHT22;7065;50.880;5.502;2023-07-09T04:32:20;19.50;99.90
13982;DHT22;7065;50.880;5.502;2023-07-09T04:34:46;19.50;99.90
13982;DHT22;7065;50.880;5.502;2023-07-09T04:37:12;19.50;99.90
13982;DHT22;7065;50.880;5.502;2023-07-09T04:39:39;19.50;99.90
13982;DHT22;7065;50.880;5.502;2023-07-09T04:42:06;19.50;99.90
13982;DHT22;7065;50.880;5.502;2023-07-09T04:44:36;19.60;99.90
13982;DHT22;7065;50.880;5.502;2023-07-09T04:47:02;19.60;99.90
13982;DHT22;7065;50.880;5.502;2023-07-09T04:49:28;19.70;99.90
13982;DHT22;7065;50.880;5.502;2023-07-09T04:51:54;19.70;99.90
13982;DHT22;7065;50.880;5.502;2023-07-09T04:54:22;19.80;99.90
13982;DHT22;7065;50.880;5.502;2023-07-09T04:56:48;19.80;99.90
13982;DHT22;7065;50.880;5.502;2023-07-09T04:59:14;19.80;99.90
13982;DHT22;7065;50.880;5.502;2023-07-09T05:01:40;19.90;99.90
13982;DHT22;7065;50.880;5.502;2023-07-09T05:04:06;19.90;99.90
13982;DHT22;7065;50.880;5.502;2023-07-09T05:06:32;20.00;99.90
13982;DHT22;7065;50.880;5.502;2023-07-09T05:08:58;20.00;99.90
13982;DHT22;7065;50.880;5.502;2023-07-09T05:11:23;20.10;99.90
13982;DHT22;7065;50.880;5.502;2023-07-09T05:13:50;20.10;99.90
13982;DHT22;7065;50.880;5.502;2023-07-09T05:16:15;20.20;99.90
13982;DHT22;7065;50.880;5.502;2023-07-09T05:18:42;20.30;99.90
13982;DHT22;7065;50.880;5.502;2023-07-09T05:21:08;20.30;99.90
13982;DHT22;7065;50.880;5.502;2023-07-09T05:23:33;20.40;99.90
13982;DHT22;7065;50.880;5.502;2023-07-09T05:26:01;20.50;99.90
13982;DHT22;7065;50.880;5.502;2023-07-09T05:28:28;20.60;99.90
13982;DHT22;7065;50.880;5.502;2023-07-09T05:30:54;20.60;99.90
13982;DHT22;7065;50.880;5.502;2023-07-09T05:33:20;20.70;99.90
13982;DHT22;7065;50.880;5.502;2023-07-09T05:35:47;20.80;99.90
13982;DHT22;7065;50.880;5.502;2023-07-09T05:38:14;20.90;99.90
13982;DHT22;7065;50.880;5.502;2023-07-09T05:40:41;20.90;99.90
13982;DHT22;7065;50.880;5.502;2023-07-09T05:43:07;21.00;99.90
13982;DHT22;7065;50.880;5.502;2023-07-09T05:45:33;21.00;99.90
13982;DHT22;7065;50.880;5.502;2023-07-09T05:47:59;21.20;99.90
13982;DHT22;7065;50.880;5.502;2023-07-09T05:50:25;21.30;99.90
13982;DHT22;7065;50.880;5.502;2023-07-09T05:52:51;21.30;99.90
13982;DHT22;7065;50.880;5.502;2023-07-09T05:55:18;21.40;99.90
13982;DHT22;7065;50.880;5.502;2023-07-09T05:57:43;21.50;99.90
13982;DHT22;7065;50.880;5.502;2023-07-09T06:00:10;21.60;99.90
13982;DHT22;7065;50.880;5.502;2023-07-09T06:02:35;21.70;99.90
13982;DHT22;7065;50.880;5.502;2023-07-09T06:05:01;21.80;99.90
13982;DHT22;7065;50.880;5.502;2023-07-09T06:07:27;21.80;99.90
13982;DHT22;7065;50.880;5.502;2023-07-09T06:09:54;21.90;99.90
13982;DHT22;7065;50.880;5.502;2023-07-09T06:12:19;22.00;99.90
13982;DHT22;7065;50.880;5.502;2023-07-09T06:14:46;22.10;99.90
13982;DHT22;7065;50.880;5.502;2023-07-09T06:17:12;22.20;99.90
13982;DHT22;7065;50.880;5.502;2023-07-09T06:19:38;22.30;99.90
13982;DHT22;7065;50.880;5.502;2023-07-09T06:22:04;22.40;99.90
13982;DHT22;7065;50.880;5.502;2023-07-09T06:24:29;22.50;99.90
13982;DHT22;7065;50.880;5.502;2023-07-09T06:26:55;22.60;99.90
13982;DHT22;7065;50.880;5.502;2023-07-09T06:29:21;22.60;99.90
13982;DHT22;7065;50.880;5.502;2023-07-09T06:31:47;22.70;99.90
13982;DHT22;7065;50.880;5.502;2023-07-09T06:34:13;22.80;99.90
13982;DHT22;7065;50.880;5.502;2023-07-09T06:36:38;22.80;99.90
13982;DHT22;7065;50.880;5.502;2023-07-09T06:39:05;22.90;99.90
13982;DHT22;7065;50.880;5.502;2023-07-09T06:41:31;23.00;99.90
13982;DHT22;7065;50.880;5.502;2023-07-09T06:43:58;23.00;99.90
13982;DHT22;7065;50.880;5.502;2023-07-09T06:46:24;23.10;99.90
13982;DHT22;7065;50.880;5.502;2023-07-09T06:48:50;23.10;99.90
13982;DHT22;7065;50.880;5.502;2023-07-09T06:51:15;23.20;99.90
13982;DHT22;7065;50.880;5.502;2023-07-09T06:53:42;23.30;99.90
13982;DHT22;7065;50.880;5.502;2023-07-09T06:56:09;23.40;99.90
13982;DHT22;7065;50.880;5.502;2023-07-09T06:58:36;23.50;99.90
13982;DHT22;7065;50.880;5.502;2023-07-09T07:01:04;23.60;99.90
13982;DHT22;7065;50.880;5.502;2023-07-09T07:03:31;23.70;99.90
13982;DHT22;7065;50.880;5.502;2023-07-09T07:05:57;23.70;99.90
13982;DHT22;7065;50.880;5.502;2023-07-09T07:08:24;23.80;99.90
13982;DHT22;7065;50.880;5.502;2023-07-09T07:10:57;23.90;99.90
13982;DHT22;7065;50.880;5.502;2023-07-09T07:13:35;24.00;99.90
13982;DHT22;7065;50.880;5.502;2023-07-09T07:16:05;24.10;99.90
13982;DHT22;7065;50.880;5.502;2023-07-09T07:18:31;24.10;99.90
13982;DHT22;7065;50.880;5.502;2023-07-09T07:20:57;24.20;99.90
13982;DHT22;7065;50.880;5.502;2023-07-09T07:23:23;24.20;99.90
13982;DHT22;7065;50.880;5.502;2023-07-09T07:25:50;24.30;99.90
13982;DHT22;7065;50.880;5.502;2023-07-09T07:28:17;24.40;99.90
13982;DHT22;7065;50.880;5.502;2023-07-09T07:30:43;24.40;99.90
13982;DHT22;7065;50.880;5.502;2023-07-09T07:33:09;24.50;99.90
13982;DHT22;7065;50.880;5.502;2023-07-09T07:35:35;24.60;99.90
13982;DHT22;7065;50.880;5.502;2023-07-09T07:38:02;24.60;99.90
13982;DHT22;7065;50.880;5.502;2023-07-09T07:40:28;24.70;99.90
13982;DHT22;7065;50.880;5.502;2023-07-09T07:42:53;24.70;99.90
13982;DHT22;7065;50.880;5.502;2023-07-09T07:45:20;24.90;99.90
13982;DHT22;7065;50.880;5.502;2023-07-09T07:47:45;24.90;99.90
13982;DHT22;7065;50.880;5.502;2023-07-09T07:50:11;25.00;99.90
13982;DHT22;7065;50.880;5.502;2023-07-09T07:52:37;25.10;99.90
13982;DHT22;7065;50.880;5.502;2023-07-09T07:55:07;25.10;99.90
13982;DHT22;7065;50.880;5.502;2023-07-09T07:57:33;25.20;99.90
13982;DHT22;7065;50.880;5.502;2023-07-09T07:59:59;25.20;99.90
13982;DHT22;7065;50.880;5.502;2023-07-09T08:02:25;25.30;99.90
13982;DHT22;7065;50.880;5.502;2023-07-09T08:04:51;25.40;99.90
13982;DHT22;7065;50.880;5.502;2023-07-09T08:07:18;25.40;99.90
13982;DHT22;7065;50.880;5.502;2023-07-09T08:09:45;25.50;99.90
13982;DHT22;7065;50.880;5.502;2023-07-09T08:12:12;25.50;99.90
13982;DHT22;7065;50.880;5.502;2023-07-09T08:14:40;25.60;99.90
13982;DHT22;7065;50.880;5.502;2023-07-09T08:17:06;25.60;99.90
13982;DHT22;7065;50.880;5.502;2023-07-09T08:19:32;25.60;99.90
13982;DHT22;7065;50.880;5.502;2023-07-09T08:22:09;25.70;99.90
13982;DHT22;7065;50.880;5.502;2023-07-09T08:24:35;25.80;99.90
13982;DHT22;7065;50.880;5.502;2023-07-09T08:27:00;26.00;99.90
13982;DHT22;7065;50.880;5.502;2023-07-09T08:29:26;26.00;99.90
13982;DHT22;7065;50.880;5.502;2023-07-09T08:31:52;26.10;99.90
13982;DHT22;7065;50.880;5.502;2023-07-09T08:34:17;26.10;99.90
13982;DHT22;7065;50.880;5.502;2023-07-09T08:36:43;26.20;99.90
13982;DHT22;7065;50.880;5.502;2023-07-09T08:39:10;26.30;99.90
13982;DHT22;7065;50.880;5.502;2023-07-09T08:49:59;26.50;99.90
13982;DHT22;7065;50.880;5.502;2023-07-09T08:52:38;26.50;99.90
13982;DHT22;7065;50.880;5.502;2023-07-09T08:57:47;26.70;99.90
13982;DHT22;7065;50.880;5.502;2023-07-09T09:00:30;26.70;99.90
13982;DHT22;7065;50.880;5.502;2023-07-09T09:03:01;26.70;99.90
13982;DHT22;7065;50.880;5.502;2023-07-09T09:05:31;26.80;99.90
13982;DHT22;7065;50.880;5.502;2023-07-09T09:08:03;26.80;99.90
13982;DHT22;7065;50.880;5.502;2023-07-09T09:10:33;26.80;99.90
13982;DHT22;7065;50.880;5.502;2023-07-09T09:13:10;26.80;99.90
13982;DHT22;7065;50.880;5.502;2023-07-09T09:15:39;26.80;99.90
13982;DHT22;7065;50.880;5.502;2023-07-09T09:18:23;26.90;99.90
13982;DHT22;7065;50.880;5.502;2023-07-09T09:21:05;27.10;99.90
13982;DHT22;7065;50.880;5.502;2023-07-09T09:23:45;27.20;99.90
13982;DHT22;7065;50.880;5.502;2023-07-09T09:26:25;27.30;99.90
13982;DHT22;7065;50.880;5.502;2023-07-09T09:28:52;27.40;99.90
13982;DHT22;7065;50.880;5.502;2023-07-09T09:31:18;27.40;99.90
13982;DHT22;7065;50.880;5.502;2023-07-09T09:33:47;27.40;99.90
13982;DHT22;7065;50.880;5.502;2023-07-09T09:36:22;27.40;99.90
13982;DHT22;7065;50.880;5.502;2023-07-09T09:38:48;27.30;99.90
13982;DHT22;7065;50.880;5.502;2023-07-09T09:41:18;27.30;99.90
13982;DHT22;7065;50.880;5.502;2023-07-09T09:43:46;27.40;99.90
13982;DHT22;7065;50.880;5.502;2023-07-09T09:46:25;27.40;99.90
13982;DHT22;7065;50.880;5.502;2023-07-09T09:48:59;27.50;99.90
13982;DHT22;7065;50.880;5.502;2023-07-09T09:51:25;27.50;99.90
13982;DHT22;7065;50.880;5.502;2023-07-09T09:53:57;27.60;99.90
13982;DHT22;7065;50.880;5.502;2023-07-09T09:56:35;27.70;99.90
13982;DHT22;7065;50.880;5.502;2023-07-09T09:59:02;27.70;99.90
13982;DHT22;7065;50.880;5.502;2023-07-09T10:01:34;27.70;99.90
13982;DHT22;7065;50.880;5.502;2023-07-09T10:04:01;27.90;99.90
13982;DHT22;7065;50.880;5.502;2023-07-09T10:14:33;28.10;99.90
13982;DHT22;7065;50.880;5.502;2023-07-09T10:17:14;28.20;99.90
13982;DHT22;7065;50.880;5.502;2023-07-09T10:19:53;28.30;99.90
13982;DHT22;7065;50.880;5.502;2023-07-09T10:30:58;28.70;99.90
13982;DHT22;7065;50.880;5.502;2023-07-09T10:39:40;29.00;99.90
13982;DHT22;7065;50.880;5.502;2023-07-09T10:42:16;29.00;99.90
13982;DHT22;7065;50.880;5.502;2023-07-09T10:44:46;29.10;99.90
13982;DHT22;7065;50.880;5.502;2023-07-09T10:47:31;29.30;99.90
13982;DHT22;7065;50.880;5.502;2023-07-09T10:49:59;29.40;99.90
13982;DHT22;7065;50.880;5.502;2023-07-09T10:52:30;29.50;99.90
13982;DHT22;7065;50.880;5.502;2023-07-09T10:55:07;29.70;99.90
13982;DHT22;7065;50.880;5.502;2023-07-09T11:00:04;29.80;99.90
13982;DHT22;7065;50.880;5.502;2023-07-09T11:02:35;29.90;99.90
13982;DHT22;7065;50.880;5.502;2023-07-09T11:05:06;30.20;99.90
13982;DHT22;7065;50.880;5.502;2023-07-09T11:10:36;30.40;99.90
13982;DHT22;7065;50.880;5.502;2023-07-09T11:13:09;30.60;99.90
13982;DHT22;7065;50.880;5.502;2023-07-09T11:15:41;30.70;99.90
13982;DHT22;7065;50.880;5.502;2023-07-09T11:18:13;30.70;99.90
13982;DHT22;7065;50.880;5.502;2023-07-09T11:20:44;30.80;99.90
13982;DHT22;7065;50.880;5.502;2023-07-09T11:23:20;30.90;99.90
13982;DHT22;7065;50.880;5.502;2023-07-09T11:26:00;31.20;99.90
13982;DHT22;7065;50.880;5.502;2023-07-09T11:28:34;31.20;99.90
13982;DHT22;7065;50.880;5.502;2023-07-09T11:31:16;31.40;99.90
13982;DHT22;7065;50.880;5.502;2023-07-09T11:39:27;31.70;99.90
13982;DHT22;7065;50.880;5.502;2023-07-09T11:41:52;32.00;99.90
13982;DHT22;7065;50.880;5.502;2023-07-09T11:44:28;32.00;99.90
13982;DHT22;7065;50.880;5.502;2023-07-09T11:49:59;32.00;99.90
13982;DHT22;7065;50.880;5.502;2023-07-09T11:52:32;32.00;99.90
13982;DHT22;7065;50.880;5.502;2023-07-09T11:58:10;32.10;99.90
13982;DHT22;7065;50.880;5.502;2023-07-09T12:00:42;32.00;99.90
13982;DHT22;7065;50.880;5.502;2023-07-09T12:03:15;31.90;99.90
13982;DHT22;7065;50.880;5.502;2023-07-09T12:05:48;31.80;99.90
13982;DHT22;7065;50.880;5.502;2023-07-09T12:08:16;31.70;99.90
13982;DHT22;7065;50.880;5.502;2023-07-09T12:10:44;31.40;99.90
13982;DHT22;7065;50.880;5.502;2023-07-09T12:13:11;31.30;99.90
13982;DHT22;7065;50.880;5.502;2023-07-09T12:15:39;31.10;99.90
13982;DHT22;7065;50.880;5.502;2023-07-09T12:18:15;31.00;99.90
13982;DHT22;7065;50.880;5.502;2023-07-09T12:20:48;30.80;99.90
13982;DHT22;7065;50.880;5.502;2023-07-09T12:25:52;30.30;99.90
13982;DHT22;7065;50.880;5.502;2023-07-09T12:28:21;30.10;99.90
13982;DHT22;7065;50.880;5.502;2023-07-09T12:30:51;29.80;99.90
13982;DHT22;7065;50.880;5.502;2023-07-09T12:33:19;29.60;99.90
13982;DHT22;7065;50.880;5.502;2023-07-09T12:35:46;29.40;99.90
13982;DHT22;7065;50.880;5.502;2023-07-09T12:38:19;29.30;99.90
13982;DHT22;7065;50.880;5.502;2023-07-09T12:40:48;29.20;99.90
13982;DHT22;7065;50.880;5.502;2023-07-09T12:43:13;29.10;99.90
13982;DHT22;7065;50.880;5.502;2023-07-09T12:45:39;29.00;99.90
13982;DHT22;7065;50.880;5.502;2023-07-09T12:48:07;29.00;99.90
13982;DHT22;7065;50.880;5.502;2023-07-09T12:50:34;29.00;99.90
13982;DHT22;7065;50.880;5.502;2023-07-09T12:53:14;29.00;99.90
13982;DHT22;7065;50.880;5.502;2023-07-09T12:55:42;28.90;99.90
13982;DHT22;7065;50.880;5.502;2023-07-09T12:58:13;28.80;99.90
13982;DHT22;7065;50.880;5.502;2023-07-09T13:00:40;28.50;99.90
13982;DHT22;7065;50.880;5.502;2023-07-09T13:03:13;28.00;99.90
13982;DHT22;7065;50.880;5.502;2023-07-09T13:05:51;27.40;99.90
13982;DHT22;7065;50.880;5.502;2023-07-09T13:08:18;26.90;99.90
13982;DHT22;7065;50.880;5.502;2023-07-09T13:10:44;26.50;99.90
13982;DHT22;7065;50.880;5.502;2023-07-09T13:13:13;26.30;99.90
13982;DHT22;7065;50.880;5.502;2023-07-09T13:15:44;26.10;99.90
13982;DHT22;7065;50.880;5.502;2023-07-09T13:18:14;26.00;99.90
13982;DHT22;7065;50.880;5.502;2023-07-09T13:20:42;25.90;99.90
13982;DHT22;7065;50.880;5.502;2023-07-09T13:23:16;25.90;99.90
13982;DHT22;7065;50.880;5.502;2023-07-09T13:25:42;25.80;99.90
13982;DHT22;7065;50.880;5.502;2023-07-09T13:28:20;25.70;99.90
13982;DHT22;7065;50.880;5.502;2023-07-09T13:30:53;25.60;99.90
13982;DHT22;7065;50.880;5.502;2023-07-09T13:33:21;25.50;99.90
13982;DHT22;7065;50.880;5.502;2023-07-09T13:35:47;25.40;99.90
13982;DHT22;7065;50.880;5.502;2023-07-09T13:38:17;25.30;99.90
13982;DHT22;7065;50.880;5.502;2023-07-09T13:40:47;25.20;99.90
13982;DHT22;7065;50.880;5.502;2023-07-09T13:43:16;25.00;99.90
13982;DHT22;7065;50.880;5.502;2023-07-09T13:45:42;24.80;99.90
13982;DHT22;7065;50.880;5.502;2023-07-09T13:48:20;24.70;99.90
13982;DHT22;7065;50.880;5.502;2023-07-09T13:50:48;24.60;99.90
13982;DHT22;7065;50.880;5.502;2023-07-09T13:53:17;24.50;99.90
13982;DHT22;7065;50.880;5.502;2023-07-09T13:55:44;24.50;99.90
13982;DHT22;7065;50.880;5.502;2023-07-09T13:58:14;24.60;99.90
13982;DHT22;7065;50.880;5.502;2023-07-09T14:00:41;24.70;99.90
13982;DHT22;7065;50.880;5.502;2023-07-09T14:03:26;24.80;99.90
13982;DHT22;7065;50.880;5.502;2023-07-09T14:05:53;24.90;99.90
13982;DHT22;7065;50.880;5.502;2023-07-09T14:08:19;25.00;99.90
13982;DHT22;7065;50.880;5.502;2023-07-09T14:10:46;25.20;99.90
13982;DHT22;7065;50.880;5.502;2023-07-09T14:13:14;25.30;99.90
13982;DHT22;7065;50.880;5.502;2023-07-09T14:15:41;25.40;99.90
13982;DHT22;7065;50.880;5.502;2023-07-09T14:18:18;25.50;99.90
13982;DHT22;7065;50.880;5.502;2023-07-09T14:20:45;25.60;99.90
13982;DHT22;7065;50.880;5.502;2023-07-09T14:23:17;25.60;99.90
13982;DHT22;7065;50.880;5.502;2023-07-09T14:25:43;25.70;99.90
13982;DHT22;7065;50.880;5.502;2023-07-09T14:28:20;25.70;99.90
13982;DHT22;7065;50.880;5.502;2023-07-09T14:30:48;25.80;99.90
13982;DHT22;7065;50.880;5.502;2023-07-09T14:33:20;25.70;99.90
13982;DHT22;7065;50.880;5.502;2023-07-09T14:35:46;25.70;99.90
13982;DHT22;7065;50.880;5.502;2023-07-09T14:38:20;25.60;99.90
13982;DHT22;7065;50.880;5.502;2023-07-09T14:40:47;25.50;99.90
13982;DHT22;7065;50.880;5.502;2023-07-09T14:43:13;25.50;99.90
13982;DHT22;7065;50.880;5.502;2023-07-09T14:45:40;25.50;99.90
13982;DHT22;7065;50.880;5.502;2023-07-09T14:48:14;25.60;99.90
13982;DHT22;7065;50.880;5.502;2023-07-09T14:50:41;25.60;99.90
13982;DHT22;7065;50.880;5.502;2023-07-09T14:53:16;25.70;99.90
13982;DHT22;7065;50.880;5.502;2023-07-09T14:55:42;25.80;99.90
13982;DHT22;7065;50.880;5.502;2023-07-09T14:58:21;26.00;99.90
13982;DHT22;7065;50.880;5.502;2023-07-09T15:00:47;26.20;99.90
13982;DHT22;7065;50.880;5.502;2023-07-09T15:03:25;26.40;99.90
13982;DHT22;7065;50.880;5.502;2023-07-09T15:05:52;26.60;99.90
13982;DHT22;7065;50.880;5.502;2023-07-09T15:08:21;26.70;99.90
13982;DHT22;7065;50.880;5.502;2023-07-09T15:10:49;26.80;99.90
13982;DHT22;7065;50.880;5.502;2023-07-09T15:13:19;27.20;99.90
13982;DHT22;7065;50.880;5.502;2023-07-09T15:15:46;27.40;99.90
13982;DHT22;7065;50.880;5.502;2023-07-09T15:18:14;27.60;99.90
13982;DHT22;7065;50.880;5.502;2023-07-09T15:20:46;27.80;99.90
13982;DHT22;7065;50.880;5.502;2023-07-09T15:23:12;28.10;99.90
13982;DHT22;7065;50.880;5.502;2023-07-09T15:25:38;28.30;99.90
13982;DHT22;7065;50.880;5.502;2023-07-09T15:28:05;28.30;99.90
13982;DHT22;7065;50.880;5.502;2023-07-09T15:30:30;28.50;99.90
13982;DHT22;7065;50.880;5.502;2023-07-09T15:32:59;28.40;99.90
13982;DHT22;7065;50.880;5.502;2023-07-09T15:35:33;28.30;99.90
13982;DHT22;7065;50.880;5.502;2023-07-09T15:37:59;28.10;99.90
13982;DHT22;7065;50.880;5.502;2023-07-09T15:40:27;28.10;99.90
13982;DHT22;7065;50.880;5.502;2023-07-09T15:42:57;28.10;99.90
13982;DHT22;7065;50.880;5.502;2023-07-09T15:45:23;28.00;99.90
13982;DHT22;7065;50.880;5.502;2023-07-09T15:47:50;28.20;99.90
13982;DHT22;7065;50.880;5.502;2023-07-09T15:50:20;28.60;99.90
13982;DHT22;7065;50.880;5.502;2023-07-09T15:52:47;29.00;99.90
13982;DHT22;7065;50.880;5.502;2023-07-09T15:55:21;30.20;99.90
13982;DHT22;7065;50.880;5.502;2023-07-09T15:57:48;31.40;99.90
13982;DHT22;7065;50.880;5.502;2023-07-09T16:00:18;32.70;99.90
13982;DHT22;7065;50.880;5.502;2023-07-09T16:02:45;33.80;99.90
13982;DHT22;7065;50.880;5.502;2023-07-09T16:05:21;34.40;99.90
13982;DHT22;7065;50.880;5.502;2023-07-09T16:07:49;34.90;99.90
13982;DHT22;7065;50.880;5.502;2023-07-09T16:10:15;35.70;99.90
13982;DHT22;7065;50.880;5.502;2023-07-09T16:12:41;36.30;99.90
13982;DHT22;7065;50.880;5.502;2023-07-09T16:15:11;36.80;99.90
13982;DHT22;7065;50.880;5.502;2023-07-09T16:17:37;37.30;99.90
13982;DHT22;7065;50.880;5.502;2023-07-09T16:20:03;37.10;99.90
13982;DHT22;7065;50.880;5.502;2023-07-09T16:22:31;37.40;99.90
13982;DHT22;7065;50.880;5.502;2023-07-09T16:24:56;37.30;99.90
13982;DHT22;7065;50.880;5.502;2023-07-09T16:27:23;38.10;99.90
13982;DHT22;7065;50.880;5.502;2023-07-09T16:29:49;38.00;99.90
13982;DHT22;7065;50.880;5.502;2023-07-09T16:32:15;38.00;99.90
13982;DHT22;7065;50.880;5.502;2023-07-09T16:34:41;38.50;99.90
13982;DHT22;7065;50.880;5.502;2023-07-09T16:37:17;38.20;99.90
13982;DHT22;7065;50.880;5.502;2023-07-09T16:39:45;37.80;99.90
13982;DHT22;7065;50.880;5.502;2023-07-09T16:42:12;37.90;99.90
13982;DHT22;7065;50.880;5.502;2023-07-09T16:44:39;37.40;99.90
13982;DHT22;7065;50.880;5.502;2023-07-09T16:47:15;37.00;99.90
13982;DHT22;7065;50.880;5.502;2023-07-09T16:49:41;37.70;99.90